sensor_id;sensor_type;location;lat;lon;timestamp;pressure;altitude;pressure_sealevel;temperature;humidity
72285;BME280;60220;53.552;10.092;2022-08-19T00:00:37;100997.09;;;21.71;67.10
72285;BME280;60220;53.552;10.092;2022-08-19T00:03:05;100991.47;;;21.60;67.76
72285;BME280;60220;53.552;10.092;2022-08-19T00:05:32;100985.66;;;22.01;65.94
72285;BME280;60220;53.552;10.092;2022-08-19T00:07:59;100985.28;;;21.91;66.71
72285;BME280;60220;53.552;10.092;2022-08-19T00:10:25;100983.03;;;21.83;66.56
72285;BME280;60220;53.552;10.092;2022-08-19T00:12:52;100982.69;;;21.89;66.65
72285;BME280;60220;53.552;10.092;2022-08-19T00:15:19;100969.56;;;21.54;67.47
72285;BME280;60220;53.552;10.092;2022-08-19T00:17:45;100988.06;;;21.41;68.34
72285;BME280;60220;53.552;10.092;2022-08-19T00:20:20;100981.97;;;21.55;68.21
72285;BME280;60220;53.552;10.092;2022-08-19T00:22:46;100998.66;;;21.42;68.86
72285;BME280;60220;53.552;10.092;2022-08-19T00:25:14;100997.97;;;21.39;69.14
72285;BME280;60220;53.552;10.092;2022-08-19T00:27:43;100991.47;;;21.60;68.01
72285;BME280;60220;53.552;10.092;2022-08-19T00:30:09;100998.56;;;21.44;68.86
72285;BME280;60220;53.552;10.092;2022-08-19T00:32:35;100998.41;;;21.47;68.87
72285;BME280;60220;53.552;10.092;2022-08-19T00:35:04;100994.28;;;21.41;68.62
72285;BME280;60220;53.552;10.092;2022-08-19T00:37:31;100998.31;;;21.48;68.66
72285;BME280;60220;53.552;10.092;2022-08-19T00:39:58;100994.28;;;21.57;69.06
72285;BME280;60220;53.552;10.092;2022-08-19T00:42:23;100988.00;;;21.58;68.94
72285;BME280;60220;53.552;10.092;2022-08-19T00:44:50;100973.91;;;21.39;69.52
72285;BME280;60220;53.552;10.092;2022-08-19T00:47:15;100976.25;;;21.45;69.70
72285;BME280;60220;53.552;10.092;2022-08-19T00:49:45;100976.91;;;21.33;70.01
72285;BME280;60220;53.552;10.092;2022-08-19T00:52:21;100976.88;;;21.17;70.90
72285;BME280;60220;53.552;10.092;2022-08-19T00:54:48;100965.28;;;21.34;70.02
72285;BME280;60220;53.552;10.092;2022-08-19T00:57:18;100959.56;;;21.57;69.12
72285;BME280;60220;53.552;10.092;2022-08-19T00:59:48;100964.81;;;21.59;69.57
72285;BME280;60220;53.552;10.092;2022-08-19T01:02:17;100966.94;;;21.52;69.23
72285;BME280;60220;53.552;10.092;2022-08-19T01:04:43;100973.88;;;21.56;69.59
72285;BME280;60220;53.552;10.092;2022-08-19T01:07:09;100973.47;;;21.31;69.70
72285;BME280;60220;53.552;10.092;2022-08-19T01:09:37;100971.06;;;21.26;70.28
72285;BME280;60220;53.552;10.092;2022-08-19T01:12:05;100973.81;;;21.25;70.73
72285;BME280;60220;53.552;10.092;2022-08-19T01:14:37;100963.19;;;21.56;70.30
72285;BME280;60220;53.552;10.092;2022-08-19T01:17:08;100970.13;;;21.10;70.77
72285;BME280;60220;53.552;10.092;2022-08-19T01:19:37;100970.50;;;21.53;70.13
72285;BME280;60220;53.552;10.092;2022-08-19T01:24:42;100963.69;;;21.14;70.82
72285;BME280;60220;53.552;10.092;2022-08-19T01:27:12;100963.56;;;21.33;70.63
72285;BME280;60220;53.552;10.092;2022-08-19T01:29:40;100960.75;;;21.36;70.68
72285;BME280;60220;53.552;10.092;2022-08-19T01:32:15;100967.06;;;21.18;71.32
72285;BME280;60220;53.552;10.092;2022-08-19T01:34:41;100970.34;;;21.05;71.24
72285;BME280;60220;53.552;10.092;2022-08-19T01:37:09;100968.13;;;21.31;70.57
72285;BME280;60220;53.552;10.092;2022-08-19T01:39:39;100956.88;;;21.57;68.99
72285;BME280;60220;53.552;10.092;2022-08-19T01:42:08;100953.34;;;21.41;69.88
72285;BME280;60220;53.552;10.092;2022-08-19T01:44:39;100943.63;;;21.56;68.90
72285;BME280;60220;53.552;10.092;2022-08-19T01:47:07;100938.44;;;21.37;70.15
72285;BME280;60220;53.552;10.092;2022-08-19T01:49:34;100930.53;;;21.51;69.62
72285;BME280;60220;53.552;10.092;2022-08-19T01:52:00;100926.22;;;21.80;69.20
72285;BME280;60220;53.552;10.092;2022-08-19T01:54:27;100926.63;;;21.72;69.11
72285;BME280;60220;53.552;10.092;2022-08-19T01:56:58;100929.75;;;21.80;68.64
72285;BME280;60220;53.552;10.092;2022-08-19T01:59:25;100938.25;;;21.40;69.44
72285;BME280;60220;53.552;10.092;2022-08-19T02:04:25;100937.69;;;21.66;69.07
72285;BME280;60220;53.552;10.092;2022-08-19T02:06:52;100932.00;;;21.57;69.13
72285;BME280;60220;53.552;10.092;2022-08-19T02:09:20;100936.94;;;21.16;71.19
72285;BME280;60220;53.552;10.092;2022-08-19T02:11:45;100927.41;;;21.10;70.93
72285;BME280;60220;53.552;10.092;2022-08-19T02:14:11;100925.75;;;21.25;70.63
72285;BME280;60220;53.552;10.092;2022-08-19T02:16:38;100904.38;;;21.25;70.65
72285;BME280;60220;53.552;10.092;2022-08-19T02:19:09;100901.97;;;21.20;71.14
72285;BME280;60220;53.552;10.092;2022-08-19T02:21:38;100895.88;;;21.34;70.87
72285;BME280;60220;53.552;10.092;2022-08-19T02:24:11;100905.75;;;21.16;71.00
72285;BME280;60220;53.552;10.092;2022-08-19T02:26:41;100909.28;;;21.17;71.21
72285;BME280;60220;53.552;10.092;2022-08-19T02:29:09;100921.59;;;20.52;72.70
72285;BME280;60220;53.552;10.092;2022-08-19T02:31:37;100926.25;;;20.98;71.79
72285;BME280;60220;53.552;10.092;2022-08-19T02:34:07;100926.72;;;20.89;72.49
72285;BME280;60220;53.552;10.092;2022-08-19T02:36:33;100921.84;;;21.15;71.19
72285;BME280;60220;53.552;10.092;2022-08-19T02:39:02;100924.47;;;21.32;70.88
72285;BME280;60220;53.552;10.092;2022-08-19T02:41:32;100922.47;;;21.20;70.94
72285;BME280;60220;53.552;10.092;2022-08-19T02:44:02;100922.94;;;21.11;71.40
72285;BME280;60220;53.552;10.092;2022-08-19T02:46:31;100925.81;;;21.23;70.94
72285;BME280;60220;53.552;10.092;2022-08-19T02:49:02;100921.09;;;20.78;72.77
72285;BME280;60220;53.552;10.092;2022-08-19T02:51:31;100916.78;;;21.09;72.09
72285;BME280;60220;53.552;10.092;2022-08-19T02:53:57;100920.13;;;20.96;72.05
72285;BME280;60220;53.552;10.092;2022-08-19T02:56:25;100917.13;;;21.20;71.40
72285;BME280;60220;53.552;10.092;2022-08-19T02:58:54;100923.94;;;21.08;71.85
72285;BME280;60220;53.552;10.092;2022-08-19T03:01:26;100925.00;;;20.88;72.85
72285;BME280;60220;53.552;10.092;2022-08-19T03:03:53;100925.19;;;20.34;74.91
72285;BME280;60220;53.552;10.092;2022-08-19T03:06:19;100923.84;;;20.77;73.38
72285;BME280;60220;53.552;10.092;2022-08-19T03:08:52;100922.53;;;20.51;74.18
72285;BME280;60220;53.552;10.092;2022-08-19T03:11:21;100920.19;;;20.62;73.65
72285;BME280;60220;53.552;10.092;2022-08-19T03:13:48;100924.34;;;21.18;71.82
72285;BME280;60220;53.552;10.092;2022-08-19T03:16:20;100933.75;;;21.08;72.38
72285;BME280;60220;53.552;10.092;2022-08-19T03:18:49;100926.00;;;21.20;72.00
72285;BME280;60220;53.552;10.092;2022-08-19T03:21:19;100924.94;;;20.90;73.11
72285;BME280;60220;53.552;10.092;2022-08-19T03:23:46;100919.66;;;20.88;72.30
72285;BME280;60220;53.552;10.092;2022-08-19T03:26:14;100924.69;;;20.77;73.41
72285;BME280;60220;53.552;10.092;2022-08-19T03:28:43;100919.91;;;21.34;71.45
72285;BME280;60220;53.552;10.092;2022-08-19T03:31:19;100924.38;;;20.83;73.18
72285;BME280;60220;53.552;10.092;2022-08-19T03:33:45;100915.69;;;20.80;73.34
72285;BME280;60220;53.552;10.092;2022-08-19T03:36:14;100918.09;;;21.01;72.71
72285;BME280;60220;53.552;10.092;2022-08-19T03:38:47;100914.88;;;20.78;73.88
72285;BME280;60220;53.552;10.092;2022-08-19T03:41:21;100916.72;;;20.60;74.21
72285;BME280;60220;53.552;10.092;2022-08-19T03:43:48;100927.69;;;20.54;74.57
72285;BME280;60220;53.552;10.092;2022-08-19T03:46:16;100924.31;;;20.68;74.37
72285;BME280;60220;53.552;10.092;2022-08-19T03:48:45;100934.16;;;20.67;74.86
72285;BME280;60220;53.552;10.092;2022-08-19T03:51:19;100942.56;;;20.92;73.25
72285;BME280;60220;53.552;10.092;2022-08-19T03:53:52;100942.34;;;20.62;73.75
72285;BME280;60220;53.552;10.092;2022-08-19T03:56:18;100946.50;;;20.68;73.74
72285;BME280;60220;53.552;10.092;2022-08-19T03:58:43;100958.66;;;21.25;72.39
72285;BME280;60220;53.552;10.092;2022-08-19T04:01:11;100968.19;;;20.96;72.88
72285;BME280;60220;53.552;10.092;2022-08-19T04:03:38;100970.38;;;20.88;73.75
72285;BME280;60220;53.552;10.092;2022-08-19T04:06:18;100970.22;;;20.57;74.76
72285;BME280;60220;53.552;10.092;2022-08-19T04:08:45;100971.28;;;21.04;72.92
72285;BME280;60220;53.552;10.092;2022-08-19T04:11:17;100968.63;;;20.87;73.08
72285;BME280;60220;53.552;10.092;2022-08-19T04:13:43;100966.06;;;20.69;73.99
72285;BME280;60220;53.552;10.092;2022-08-19T04:16:09;100971.03;;;20.04;76.01
72285;BME280;60220;53.552;10.092;2022-08-19T04:18:36;100984.44;;;20.92;73.08
72285;BME280;60220;53.552;10.092;2022-08-19T04:21:03;100979.38;;;21.03;72.86
72285;BME280;60220;53.552;10.092;2022-08-19T04:23:28;100985.66;;;21.19;71.92
72285;BME280;60220;53.552;10.092;2022-08-19T04:25:57;100980.09;;;21.07;71.53
72285;BME280;60220;53.552;10.092;2022-08-19T04:28:25;100983.56;;;20.74;73.48
72285;BME280;60220;53.552;10.092;2022-08-19T04:30:52;100980.25;;;20.69;73.33
72285;BME280;60220;53.552;10.092;2022-08-19T04:33:24;100984.88;;;20.48;73.87
72285;BME280;60220;53.552;10.092;2022-08-19T04:35:52;100986.47;;;20.87;73.47
72285;BME280;60220;53.552;10.092;2022-08-19T04:38:20;100983.94;;;20.84;73.30
72285;BME280;60220;53.552;10.092;2022-08-19T04:40:50;100989.22;;;20.85;73.23
72285;BME280;60220;53.552;10.092;2022-08-19T04:43:36;100981.03;;;20.88;73.70
72285;BME280;60220;53.552;10.092;2022-08-19T04:46:08;100991.72;;;20.88;72.95
72285;BME280;60220;53.552;10.092;2022-08-19T04:48:34;100988.19;;;20.71;74.30
72285;BME280;60220;53.552;10.092;2022-08-19T04:51:07;100990.31;;;20.47;75.20
72285;BME280;60220;53.552;10.092;2022-08-19T04:53:35;100989.28;;;20.49;74.51
72285;BME280;60220;53.552;10.092;2022-08-19T04:56:07;100995.31;;;20.53;75.20
72285;BME280;60220;53.552;10.092;2022-08-19T04:58:32;101004.44;;;20.83;74.67
72285;BME280;60220;53.552;10.092;2022-08-19T05:01:00;100997.59;;;20.78;74.17
72285;BME280;60220;53.552;10.092;2022-08-19T05:03:26;100994.44;;;20.52;75.27
72285;BME280;60220;53.552;10.092;2022-08-19T05:05:52;100993.28;;;20.58;74.63
72285;BME280;60220;53.552;10.092;2022-08-19T05:08:20;101005.84;;;20.56;75.03
72285;BME280;60220;53.552;10.092;2022-08-19T05:10:51;101002.69;;;20.82;74.20
72285;BME280;60220;53.552;10.092;2022-08-19T05:13:19;101007.34;;;20.79;74.78
72285;BME280;60220;53.552;10.092;2022-08-19T05:15:56;101015.66;;;20.90;74.30
72285;BME280;60220;53.552;10.092;2022-08-19T05:18:24;101019.78;;;21.13;73.46
72285;BME280;60220;53.552;10.092;2022-08-19T05:21:09;101017.78;;;21.00;73.31
72285;BME280;60220;53.552;10.092;2022-08-19T05:23:53;101012.75;;;20.94;74.00
72285;BME280;60220;53.552;10.092;2022-08-19T05:26:21;101019.03;;;20.76;74.22
72285;BME280;60220;53.552;10.092;2022-08-19T05:28:47;101014.16;;;20.67;75.46
72285;BME280;60220;53.552;10.092;2022-08-19T05:31:17;101016.38;;;20.76;75.03
72285;BME280;60220;53.552;10.092;2022-08-19T05:33:50;101011.31;;;20.87;73.87
72285;BME280;60220;53.552;10.092;2022-08-19T05:36:15;101008.34;;;20.42;75.49
72285;BME280;60220;53.552;10.092;2022-08-19T05:38:43;101018.00;;;20.79;74.40
72285;BME280;60220;53.552;10.092;2022-08-19T05:41:14;101013.69;;;20.76;74.19
72285;BME280;60220;53.552;10.092;2022-08-19T05:43:42;101017.09;;;20.97;73.91
72285;BME280;60220;53.552;10.092;2022-08-19T05:46:17;101012.72;;;20.77;74.02
72285;BME280;60220;53.552;10.092;2022-08-19T05:48:43;101014.16;;;20.67;74.08
72285;BME280;60220;53.552;10.092;2022-08-19T05:51:09;101017.72;;;21.02;72.71
72285;BME280;60220;53.552;10.092;2022-08-19T05:53:35;101010.72;;;20.99;73.02
72285;BME280;60220;53.552;10.092;2022-08-19T05:56:06;101004.13;;;20.89;73.22
72285;BME280;60220;53.552;10.092;2022-08-19T05:58:32;101008.19;;;20.79;73.22
72285;BME280;60220;53.552;10.092;2022-08-19T06:00:58;101007.56;;;21.26;71.89
72285;BME280;60220;53.552;10.092;2022-08-19T06:03:32;101007.09;;;21.00;72.65
72285;BME280;60220;53.552;10.092;2022-08-19T06:05:58;101005.22;;;21.37;71.32
72285;BME280;60220;53.552;10.092;2022-08-19T06:08:25;101011.34;;;21.22;71.77
72285;BME280;60220;53.552;10.092;2022-08-19T06:10:54;101008.66;;;21.04;72.35
72285;BME280;60220;53.552;10.092;2022-08-19T06:13:21;101009.66;;;20.68;72.71
72285;BME280;60220;53.552;10.092;2022-08-19T06:15:48;101017.28;;;21.10;72.26
72285;BME280;60220;53.552;10.092;2022-08-19T06:18:16;101012.44;;;21.00;71.90
72285;BME280;60220;53.552;10.092;2022-08-19T06:20:42;101014.47;;;20.95;72.51
72285;BME280;60220;53.552;10.092;2022-08-19T06:23:08;101014.94;;;21.03;71.99
72285;BME280;60220;53.552;10.092;2022-08-19T06:25:36;101015.91;;;20.85;73.49
72285;BME280;60220;53.552;10.092;2022-08-19T06:28:03;101008.75;;;20.51;74.34
72285;BME280;60220;53.552;10.092;2022-08-19T06:30:31;101010.63;;;20.84;73.39
72285;BME280;60220;53.552;10.092;2022-08-19T06:32:59;101016.03;;;20.99;72.97
72285;BME280;60220;53.552;10.092;2022-08-19T06:35:24;100999.09;;;20.66;73.76
72285;BME280;60220;53.552;10.092;2022-08-19T06:37:50;101015.56;;;21.09;72.59
72285;BME280;60220;53.552;10.092;2022-08-19T06:40:16;100998.31;;;21.16;72.50
72285;BME280;60220;53.552;10.092;2022-08-19T06:42:41;100997.97;;;20.87;73.32
72285;BME280;60220;53.552;10.092;2022-08-19T06:45:07;100995.06;;;21.09;72.92
72285;BME280;60220;53.552;10.092;2022-08-19T06:47:33;100999.72;;;21.05;72.12
72285;BME280;60220;53.552;10.092;2022-08-19T06:50:04;101003.31;;;21.04;72.10
72285;BME280;60220;53.552;10.092;2022-08-19T06:52:31;101007.19;;;20.82;73.54
72285;BME280;60220;53.552;10.092;2022-08-19T06:54:57;101005.53;;;20.96;72.97
72285;BME280;60220;53.552;10.092;2022-08-19T06:57:26;101006.84;;;20.88;73.18
72285;BME280;60220;53.552;10.092;2022-08-19T06:59:54;101002.25;;;21.26;71.58
72285;BME280;60220;53.552;10.092;2022-08-19T07:02:24;101008.91;;;20.83;73.06
72285;BME280;60220;53.552;10.092;2022-08-19T07:04:53;101011.34;;;21.04;72.98
72285;BME280;60220;53.552;10.092;2022-08-19T07:07:20;101005.09;;;21.38;71.92
72285;BME280;60220;53.552;10.092;2022-08-19T07:09:51;101003.13;;;21.42;71.00
72285;BME280;60220;53.552;10.092;2022-08-19T07:12:18;100997.97;;;21.39;70.96
72285;BME280;60220;53.552;10.092;2022-08-19T07:14:43;101000.63;;;21.39;70.65
72285;BME280;60220;53.552;10.092;2022-08-19T07:17:12;101000.06;;;21.17;72.15
72285;BME280;60220;53.552;10.092;2022-08-19T07:19:38;101003.00;;;21.28;71.90
72285;BME280;60220;53.552;10.092;2022-08-19T07:22:09;101004.53;;;21.49;70.28
72285;BME280;60220;53.552;10.092;2022-08-19T07:24:38;101011.88;;;21.28;71.33
72285;BME280;60220;53.552;10.092;2022-08-19T07:27:10;101011.19;;;21.25;71.95
72285;BME280;60220;53.552;10.092;2022-08-19T07:29:36;101013.84;;;20.90;72.74
72285;BME280;60220;53.552;10.092;2022-08-19T07:32:03;101020.59;;;21.32;71.56
72285;BME280;60220;53.552;10.092;2022-08-19T07:34:30;101029.72;;;21.11;72.21
72285;BME280;60220;53.552;10.092;2022-08-19T07:36:58;101029.84;;;21.08;72.07
72285;BME280;60220;53.552;10.092;2022-08-19T07:39:31;101032.63;;;21.23;72.10
72285;BME280;60220;53.552;10.092;2022-08-19T07:42:02;101039.34;;;20.79;72.87
72285;BME280;60220;53.552;10.092;2022-08-19T07:44:29;101033.97;;;21.32;71.24
72285;BME280;60220;53.552;10.092;2022-08-19T07:46:58;101039.28;;;20.97;73.15
72285;BME280;60220;53.552;10.092;2022-08-19T07:49:27;101033.78;;;21.00;73.09
72285;BME280;60220;53.552;10.092;2022-08-19T07:52:00;101042.19;;;21.27;72.34
72285;BME280;60220;53.552;10.092;2022-08-19T07:54:28;101046.53;;;21.63;70.43
72285;BME280;60220;53.552;10.092;2022-08-19T07:56:54;101046.50;;;20.95;73.10
72285;BME280;60220;53.552;10.092;2022-08-19T07:59:24;101050.97;;;20.78;73.08
72285;BME280;60220;53.552;10.092;2022-08-19T08:01:52;101060.97;;;20.91;72.58
72285;BME280;60220;53.552;10.092;2022-08-19T08:04:18;101058.44;;;21.05;72.83
72285;BME280;60220;53.552;10.092;2022-08-19T08:07:04;101055.16;;;21.35;71.45
72285;BME280;60220;53.552;10.092;2022-08-19T08:09:48;101064.31;;;21.12;72.79
72285;BME280;60220;53.552;10.092;2022-08-19T08:12:21;101068.19;;;21.24;71.80
72285;BME280;60220;53.552;10.092;2022-08-19T08:14:56;101068.75;;;21.63;70.65
72285;BME280;60220;53.552;10.092;2022-08-19T08:17:24;101072.34;;;21.46;70.97
72285;BME280;60220;53.552;10.092;2022-08-19T08:19:50;101067.06;;;21.45;71.73
72285;BME280;60220;53.552;10.092;2022-08-19T08:22:19;101071.59;;;21.60;70.89
72285;BME280;60220;53.552;10.092;2022-08-19T08:25:10;101080.69;;;21.40;71.57
72285;BME280;60220;53.552;10.092;2022-08-19T08:27:40;101073.81;;;21.52;70.77
72285;BME280;60220;53.552;10.092;2022-08-19T08:30:15;101076.03;;;21.10;72.13
72285;BME280;60220;53.552;10.092;2022-08-19T08:32:41;101078.00;;;21.23;71.32
72285;BME280;60220;53.552;10.092;2022-08-19T08:35:12;101075.84;;;21.13;72.15
72285;BME280;60220;53.552;10.092;2022-08-19T08:37:40;101079.94;;;21.02;72.23
72285;BME280;60220;53.552;10.092;2022-08-19T08:40:28;101081.84;;;21.00;72.06
72285;BME280;60220;53.552;10.092;2022-08-19T08:45:33;101088.34;;;20.42;74.33
72285;BME280;60220;53.552;10.092;2022-08-19T08:48:11;101078.25;;;20.66;73.17
72285;BME280;60220;53.552;10.092;2022-08-19T08:50:42;101079.53;;;20.93;72.39
72285;BME280;60220;53.552;10.092;2022-08-19T08:53:12;101077.13;;;21.23;71.35
72285;BME280;60220;53.552;10.092;2022-08-19T08:55:42;101082.66;;;21.20;72.05
72285;BME280;60220;53.552;10.092;2022-08-19T08:58:14;101084.06;;;21.27;71.59
72285;BME280;60220;53.552;10.092;2022-08-19T09:00:47;101093.16;;;21.23;71.82
72285;BME280;60220;53.552;10.092;2022-08-19T09:03:25;101090.66;;;21.37;71.01
72285;BME280;60220;53.552;10.092;2022-08-19T09:06:09;101097.00;;;21.34;71.30
72285;BME280;60220;53.552;10.092;2022-08-19T09:11:40;101092.22;;;21.07;72.72
72285;BME280;60220;53.552;10.092;2022-08-19T09:14:27;101089.88;;;21.18;71.41
72285;BME280;60220;53.552;10.092;2022-08-19T09:17:00;101087.69;;;21.07;71.76
72285;BME280;60220;53.552;10.092;2022-08-19T09:19:32;101093.09;;;21.24;70.89
72285;BME280;60220;53.552;10.092;2022-08-19T09:22:00;101093.03;;;21.26;71.63
72285;BME280;60220;53.552;10.092;2022-08-19T09:24:26;101094.22;;;21.70;70.65
72285;BME280;60220;53.552;10.092;2022-08-19T09:26:51;101102.28;;;21.19;71.22
72285;BME280;60220;53.552;10.092;2022-08-19T09:29:19;101093.84;;;21.09;71.87
72285;BME280;60220;53.552;10.092;2022-08-19T09:31:49;101095.38;;;21.32;71.54
72285;BME280;60220;53.552;10.092;2022-08-19T09:34:15;101089.25;;;21.30;71.88
72285;BME280;60220;53.552;10.092;2022-08-19T09:36:43;101092.09;;;21.27;71.61
72285;BME280;60220;53.552;10.092;2022-08-19T09:39:08;101087.78;;;21.57;71.00
72285;BME280;60220;53.552;10.092;2022-08-19T09:41:33;101090.63;;;21.54;70.59
72285;BME280;60220;53.552;10.092;2022-08-19T09:43:59;101092.84;;;21.29;71.88
72285;BME280;60220;53.552;10.092;2022-08-19T09:46:28;101084.25;;;20.88;72.32
72285;BME280;60220;53.552;10.092;2022-08-19T09:48:59;101082.16;;;21.29;71.90
72285;BME280;60220;53.552;10.092;2022-08-19T09:51:26;101083.00;;;20.95;73.10
72285;BME280;60220;53.552;10.092;2022-08-19T09:53:54;101082.72;;;20.65;74.27
72285;BME280;60220;53.552;10.092;2022-08-19T09:56:22;101084.03;;;21.44;72.21
72285;BME280;60220;53.552;10.092;2022-08-19T09:58:48;101079.13;;;21.36;72.46
72285;BME280;60220;53.552;10.092;2022-08-19T10:01:21;101079.50;;;21.46;72.03
72285;BME280;60220;53.552;10.092;2022-08-19T10:03:53;101085.84;;;21.43;71.21
72285;BME280;60220;53.552;10.092;2022-08-19T10:06:25;101086.69;;;21.61;71.58
72285;BME280;60220;53.552;10.092;2022-08-19T10:08:52;101082.22;;;21.95;70.18
72285;BME280;60220;53.552;10.092;2022-08-19T10:11:20;101079.66;;;22.24;69.06
72285;BME280;60220;53.552;10.092;2022-08-19T10:13:46;101082.94;;;22.45;68.68
72285;BME280;60220;53.552;10.092;2022-08-19T10:16:15;101093.91;;;21.76;70.40
72285;BME280;60220;53.552;10.092;2022-08-19T10:18:41;101094.94;;;21.89;70.04
72285;BME280;60220;53.552;10.092;2022-08-19T10:21:18;101083.69;;;20.98;72.55
72285;BME280;60220;53.552;10.092;2022-08-19T10:23:47;101088.88;;;21.70;70.89
72285;BME280;60220;53.552;10.092;2022-08-19T10:26:19;101093.63;;;21.14;72.40
72285;BME280;60220;53.552;10.092;2022-08-19T10:28:48;101098.97;;;21.48;71.96
72285;BME280;60220;53.552;10.092;2022-08-19T10:31:20;101085.22;;;21.56;71.86
72285;BME280;60220;53.552;10.092;2022-08-19T10:33:47;101094.47;;;21.99;70.08
72285;BME280;60220;53.552;10.092;2022-08-19T10:36:18;101082.50;;;21.73;70.53
72285;BME280;60220;53.552;10.092;2022-08-19T10:38:46;101093.34;;;21.70;71.20
72285;BME280;60220;53.552;10.092;2022-08-19T10:41:18;101093.63;;;22.14;69.77
72285;BME280;60220;53.552;10.092;2022-08-19T10:43:44;101098.41;;;21.92;70.77
72285;BME280;60220;53.552;10.092;2022-08-19T10:46:12;101095.59;;;21.77;71.29
72285;BME280;60220;53.552;10.092;2022-08-19T10:48:38;101091.84;;;21.81;70.52
72285;BME280;60220;53.552;10.092;2022-08-19T10:51:04;101087.34;;;21.49;71.72
72285;BME280;60220;53.552;10.092;2022-08-19T10:53:49;101090.88;;;22.00;70.25
72285;BME280;60220;53.552;10.092;2022-08-19T10:56:15;101086.41;;;22.16;69.83
72285;BME280;60220;53.552;10.092;2022-08-19T10:59:01;101085.69;;;22.28;69.57
72285;BME280;60220;53.552;10.092;2022-08-19T11:01:32;101087.06;;;21.71;71.64
72285;BME280;60220;53.552;10.092;2022-08-19T11:06:27;101085.50;;;22.00;70.63
72285;BME280;60220;53.552;10.092;2022-08-19T11:08:55;101082.06;;;22.13;69.71
72285;BME280;60220;53.552;10.092;2022-08-19T11:11:21;101078.84;;;21.91;70.29
72285;BME280;60220;53.552;10.092;2022-08-19T11:13:52;101088.13;;;22.48;68.65
72285;BME280;60220;53.552;10.092;2022-08-19T11:16:27;101086.63;;;21.96;70.78
72285;BME280;60220;53.552;10.092;2022-08-19T11:18:57;101087.97;;;22.51;69.08
72285;BME280;60220;53.552;10.092;2022-08-19T11:21:48;101095.03;;;22.21;69.27
72285;BME280;60220;53.552;10.092;2022-08-19T11:24:16;101093.06;;;21.92;69.82
72285;BME280;60220;53.552;10.092;2022-08-19T11:26:43;101096.59;;;22.25;69.41
72285;BME280;60220;53.552;10.092;2022-08-19T11:29:11;101096.53;;;21.94;70.38
72285;BME280;60220;53.552;10.092;2022-08-19T11:31:43;101091.66;;;22.33;69.37
72285;BME280;60220;53.552;10.092;2022-08-19T11:34:17;101085.03;;;22.40;68.82
72285;BME280;60220;53.552;10.092;2022-08-19T11:36:45;101083.13;;;22.11;69.50
72285;BME280;60220;53.552;10.092;2022-08-19T11:39:15;101077.84;;;22.56;68.27
72285;BME280;60220;53.552;10.092;2022-08-19T11:41:40;101067.22;;;22.86;67.64
72285;BME280;60220;53.552;10.092;2022-08-19T11:44:07;101070.94;;;22.84;67.05
72285;BME280;60220;53.552;10.092;2022-08-19T11:46:36;101073.19;;;22.44;68.70
72285;BME280;60220;53.552;10.092;2022-08-19T11:49:06;101074.31;;;22.24;69.08
72285;BME280;60220;53.552;10.092;2022-08-19T11:51:32;101076.13;;;22.24;69.69
72285;BME280;60220;53.552;10.092;2022-08-19T11:54:02;101071.84;;;22.67;68.39
72285;BME280;60220;53.552;10.092;2022-08-19T11:56:29;101065.06;;;23.07;66.24
72285;BME280;60220;53.552;10.092;2022-08-19T11:58:56;101069.72;;;22.73;67.69
72285;BME280;60220;53.552;10.092;2022-08-19T12:01:24;101073.78;;;22.81;67.66
72285;BME280;60220;53.552;10.092;2022-08-19T12:03:51;101073.59;;;22.84;67.46
72285;BME280;60220;53.552;10.092;2022-08-19T12:06:23;101076.09;;;22.87;67.10
72285;BME280;60220;53.552;10.092;2022-08-19T12:08:51;101079.03;;;23.12;66.83
72285;BME280;60220;53.552;10.092;2022-08-19T12:11:18;101071.63;;;22.71;67.61
72285;BME280;60220;53.552;10.092;2022-08-19T12:13:44;101074.31;;;22.71;68.05
72285;BME280;60220;53.552;10.092;2022-08-19T12:16:25;101072.03;;;23.39;65.66
72285;BME280;60220;53.552;10.092;2022-08-19T12:18:52;101083.19;;;23.32;65.82
72285;BME280;60220;53.552;10.092;2022-08-19T12:21:22;101076.16;;;23.01;66.20
72285;BME280;60220;53.552;10.092;2022-08-19T12:23:50;101073.28;;;23.04;66.08
72285;BME280;60220;53.552;10.092;2022-08-19T12:26:17;101073.53;;;22.85;66.72
72285;BME280;60220;53.552;10.092;2022-08-19T12:28:42;101070.38;;;23.23;65.93
72285;BME280;60220;53.552;10.092;2022-08-19T12:31:08;101071.22;;;23.23;65.65
72285;BME280;60220;53.552;10.092;2022-08-19T12:33:37;101065.31;;;22.72;67.06
72285;BME280;60220;53.552;10.092;2022-08-19T12:36:07;101070.63;;;23.48;65.17
72285;BME280;60220;53.552;10.092;2022-08-19T12:38:33;101063.09;;;23.69;64.89
72285;BME280;60220;53.552;10.092;2022-08-19T12:41:02;101060.78;;;24.05;63.08
72285;BME280;60220;53.552;10.092;2022-08-19T12:43:30;101054.63;;;24.17;62.59
72285;BME280;60220;53.552;10.092;2022-08-19T12:45:56;101061.84;;;23.46;64.04
72285;BME280;60220;53.552;10.092;2022-08-19T12:48:21;101062.69;;;23.46;65.37
72285;BME280;60220;53.552;10.092;2022-08-19T12:50:47;101062.31;;;23.67;65.17
72285;BME280;60220;53.552;10.092;2022-08-19T12:53:15;101057.09;;;24.06;63.24
72285;BME280;60220;53.552;10.092;2022-08-19T12:55:41;101061.38;;;24.37;62.18
72285;BME280;60220;53.552;10.092;2022-08-19T12:58:12;101052.91;;;23.31;64.82
72285;BME280;60220;53.552;10.092;2022-08-19T13:00:40;101063.28;;;23.66;64.63
72285;BME280;60220;53.552;10.092;2022-08-19T13:03:05;101063.47;;;23.77;63.70